sensor_id;sensor_type;location;lat;lon;timestamp;P1;durP1;ratioP1;P2;durP2;ratioP2
33347;SDS011;19707;51.158;17.124;2022-10-16T00:02:16;27.10;;;16.85;;
33347;SDS011;19707;51.158;17.124;2022-10-16T00:05:17;21.60;;;15.30;;
33347;SDS011;19707;51.158;17.124;2022-10-16T00:08:19;20.72;;;14.58;;
33347;SDS011;19707;51.158;17.124;2022-10-16T00:11:21;18.98;;;14.05;;
33347;SDS011;19707;51.158;17.124;2022-10-16T00:14:34;15.18;;;11.68;;
33347;SDS011;19707;51.158;17.124;2022-10-16T00:17:35;16.82;;;12.70;;
33347;SDS011;19707;51.158;17.124;2022-10-16T00:20:36;13.40;;;10.60;;
33347;SDS011;19707;51.158;17.124;2022-10-16T00:23:38;16.15;;;10.68;;
33347;SDS011;19707;51.158;17.124;2022-10-16T00:26:40;12.03;;;9.78;;
33347;SDS011;19707;51.158;17.124;2022-10-16T00:29:41;14.00;;;9.50;;
33347;SDS011;19707;51.158;17.124;2022-10-16T00:32:42;10.35;;;8.53;;
33347;SDS011;19707;51.158;17.124;2022-10-16T00:35:43;12.73;;;9.45;;
33347;SDS011;19707;51.158;17.124;2022-10-16T00:38:45;11.75;;;7.75;;
33347;SDS011;19707;51.158;17.124;2022-10-16T00:41:47;13.32;;;10.38;;
33347;SDS011;19707;51.158;17.124;2022-10-16T00:44:55;18.40;;;11.38;;
33347;SDS011;19707;51.158;17.124;2022-10-16T00:47:58;12.80;;;9.45;;
33347;SDS011;19707;51.158;17.124;2022-10-16T00:50:59;10.75;;;8.30;;
33347;SDS011;19707;51.158;17.124;2022-10-16T00:54:01;10.00;;;8.00;;
33347;SDS011;19707;51.158;17.124;2022-10-16T00:57:05;11.10;;;7.45;;
33347;SDS011;19707;51.158;17.124;2022-10-16T01:00:09;11.33;;;8.35;;
33347;SDS011;19707;51.158;17.124;2022-10-16T01:13:42;10.48;;;6.92;;
33347;SDS011;19707;51.158;17.124;2022-10-16T01:16:55;10.43;;;7.15;;
33347;SDS011;19707;51.158;17.124;2022-10-16T01:27:15;8.83;;;6.22;;
33347;SDS011;19707;51.158;17.124;2022-10-16T01:30:27;8.08;;;6.22;;
33347;SDS011;19707;51.158;17.124;2022-10-16T01:33:42;11.03;;;7.03;;
33347;SDS011;19707;51.158;17.124;2022-10-16T01:36:56;10.55;;;6.92;;
33347;SDS011;19707;51.158;17.124;2022-10-16T01:40:02;8.78;;;6.90;;
33347;SDS011;19707;51.158;17.124;2022-10-16T01:43:10;8.10;;;7.03;;
33347;SDS011;19707;51.158;17.124;2022-10-16T01:46:23;14.38;;;7.08;;
33347;SDS011;19707;51.158;17.124;2022-10-16T01:49:26;7.75;;;6.47;;
33347;SDS011;19707;51.158;17.124;2022-10-16T01:52:33;11.55;;;7.20;;
33347;SDS011;19707;51.158;17.124;2022-10-16T01:55:38;7.37;;;6.65;;
33347;SDS011;19707;51.158;17.124;2022-10-16T01:58:48;11.40;;;7.58;;
33347;SDS011;19707;51.158;17.124;2022-10-16T02:01:54;8.93;;;7.45;;
33347;SDS011;19707;51.158;17.124;2022-10-16T02:05:08;10.48;;;7.35;;
33347;SDS011;19707;51.158;17.124;2022-10-16T02:08:27;10.38;;;7.95;;
33347;SDS011;19707;51.158;17.124;2022-10-16T02:11:30;8.70;;;7.08;;
33347;SDS011;19707;51.158;17.124;2022-10-16T02:14:32;8.68;;;7.53;;
33347;SDS011;19707;51.158;17.124;2022-10-16T02:17:33;9.03;;;7.60;;
33347;SDS011;19707;51.158;17.124;2022-10-16T02:21:19;12.00;;;7.83;;
33347;SDS011;19707;51.158;17.124;2022-10-16T02:23:58;9.23;;;7.67;;
33347;SDS011;19707;51.158;17.124;2022-10-16T02:27:13;9.15;;;7.70;;
33347;SDS011;19707;51.158;17.124;2022-10-16T02:30:23;8.93;;;7.67;;
33347;SDS011;19707;51.158;17.124;2022-10-16T02:33:36;9.75;;;7.12;;
33347;SDS011;19707;51.158;17.124;2022-10-16T02:36:40;10.53;;;7.87;;
33347;SDS011;19707;51.158;17.124;2022-10-16T02:39:43;11.12;;;7.37;;
33347;SDS011;19707;51.158;17.124;2022-10-16T02:42:44;8.55;;;7.33;;
33347;SDS011;19707;51.158;17.124;2022-10-16T02:45:47;8.25;;;7.20;;
33347;SDS011;19707;51.158;17.124;2022-10-16T02:48:49;8.28;;;7.42;;
33347;SDS011;19707;51.158;17.124;2022-10-16T02:51:50;10.68;;;8.05;;
33347;SDS011;19707;51.158;17.124;2022-10-16T02:54:51;12.37;;;8.38;;
33347;SDS011;19707;51.158;17.124;2022-10-16T02:57:53;13.13;;;8.30;;
33347;SDS011;19707;51.158;17.124;2022-10-16T03:00:55;9.48;;;7.50;;
33347;SDS011;19707;51.158;17.124;2022-10-16T03:03:57;9.35;;;7.72;;
33347;SDS011;19707;51.158;17.124;2022-10-16T03:07:01;8.85;;;7.70;;
33347;SDS011;19707;51.158;17.124;2022-10-16T03:10:03;10.15;;;7.80;;
33347;SDS011;19707;51.158;17.124;2022-10-16T03:13:06;9.85;;;7.95;;
33347;SDS011;19707;51.158;17.124;2022-10-16T03:16:07;12.03;;;8.03;;
33347;SDS011;19707;51.158;17.124;2022-10-16T03:19:09;11.63;;;7.65;;
33347;SDS011;19707;51.158;17.124;2022-10-16T03:22:10;10.15;;;7.45;;
33347;SDS011;19707;51.158;17.124;2022-10-16T03:25:11;8.20;;;7.33;;
33347;SDS011;19707;51.158;17.124;2022-10-16T03:28:13;10.58;;;7.17;;
33347;SDS011;19707;51.158;17.124;2022-10-16T03:31:14;12.20;;;7.78;;
33347;SDS011;19707;51.158;17.124;2022-10-16T03:34:15;10.08;;;7.95;;
33347;SDS011;19707;51.158;17.124;2022-10-16T03:37:16;12.40;;;7.95;;
33347;SDS011;19707;51.158;17.124;2022-10-16T03:40:18;12.23;;;7.17;;
33347;SDS011;19707;51.158;17.124;2022-10-16T03:43:19;9.20;;;7.37;;
33347;SDS011;19707;51.158;17.124;2022-10-16T03:46:20;8.13;;;7.28;;
33347;SDS011;19707;51.158;17.124;2022-10-16T03:49:21;13.05;;;7.62;;
33347;SDS011;19707;51.158;17.124;2022-10-16T03:52:23;12.63;;;8.00;;
33347;SDS011;19707;51.158;17.124;2022-10-16T03:55:24;9.15;;;7.60;;
33347;SDS011;19707;51.158;17.124;2022-10-16T03:58:25;12.23;;;8.30;;
33347;SDS011;19707;51.158;17.124;2022-10-16T04:01:27;16.23;;;8.58;;
33347;SDS011;19707;51.158;17.124;2022-10-16T04:04:30;12.30;;;7.95;;
33347;SDS011;19707;51.158;17.124;2022-10-16T04:07:32;15.88;;;8.90;;
33347;SDS011;19707;51.158;17.124;2022-10-16T04:10:33;11.60;;;8.33;;
33347;SDS011;19707;51.158;17.124;2022-10-16T04:13:34;10.85;;;8.10;;
33347;SDS011;19707;51.158;17.124;2022-10-16T04:16:35;16.07;;;7.92;;
33347;SDS011;19707;51.158;17.124;2022-10-16T04:19:37;11.40;;;8.55;;
33347;SDS011;19707;51.158;17.124;2022-10-16T04:22:38;16.20;;;8.13;;
33347;SDS011;19707;51.158;17.124;2022-10-16T04:25:39;10.68;;;8.08;;
33347;SDS011;19707;51.158;17.124;2022-10-16T04:28:40;12.95;;;8.83;;
33347;SDS011;19707;51.158;17.124;2022-10-16T04:31:42;9.40;;;7.55;;
33347;SDS011;19707;51.158;17.124;2022-10-16T04:34:43;10.82;;;8.20;;
33347;SDS011;19707;51.158;17.124;2022-10-16T04:37:44;11.22;;;8.13;;
33347;SDS011;19707;51.158;17.124;2022-10-16T04:40:46;10.40;;;7.40;;
33347;SDS011;19707;51.158;17.124;2022-10-16T04:43:47;9.03;;;7.47;;
33347;SDS011;19707;51.158;17.124;2022-10-16T04:46:52;10.48;;;8.15;;
33347;SDS011;19707;51.158;17.124;2022-10-16T04:49:53;10.18;;;7.70;;
33347;SDS011;19707;51.158;17.124;2022-10-16T04:52:54;9.08;;;8.08;;
33347;SDS011;19707;51.158;17.124;2022-10-16T04:55:55;11.03;;;7.53;;
33347;SDS011;19707;51.158;17.124;2022-10-16T04:58:57;11.30;;;7.20;;
33347;SDS011;19707;51.158;17.124;2022-10-16T05:01:59;10.88;;;7.83;;
33347;SDS011;19707;51.158;17.124;2022-10-16T05:05:00;11.35;;;8.08;;
33347;SDS011;19707;51.158;17.124;2022-10-16T05:08:01;9.63;;;7.05;;
33347;SDS011;19707;51.158;17.124;2022-10-16T05:11:04;9.50;;;8.05;;
33347;SDS011;19707;51.158;17.124;2022-10-16T05:14:05;10.63;;;7.65;;
33347;SDS011;19707;51.158;17.124;2022-10-16T05:17:07;10.32;;;7.67;;
33347;SDS011;19707;51.158;17.124;2022-10-16T05:20:08;10.90;;;7.62;;
33347;SDS011;19707;51.158;17.124;2022-10-16T05:23:10;9.15;;;7.30;;
33347;SDS011;19707;51.158;17.124;2022-10-16T05:26:12;9.43;;;7.72;;
33347;SDS011;19707;51.158;17.124;2022-10-16T05:29:14;8.05;;;6.83;;
33347;SDS011;19707;51.158;17.124;2022-10-16T05:32:15;9.43;;;7.70;;
33347;SDS011;19707;51.158;17.124;2022-10-16T05:35:19;11.55;;;9.73;;
33347;SDS011;19707;51.158;17.124;2022-10-16T05:38:21;13.70;;;10.93;;
33347;SDS011;19707;51.158;17.124;2022-10-16T05:41:22;11.25;;;8.98;;
33347;SDS011;19707;51.158;17.124;2022-10-16T05:44:26;11.60;;;8.90;;
33347;SDS011;19707;51.158;17.124;2022-10-16T05:47:27;11.55;;;9.10;;
33347;SDS011;19707;51.158;17.124;2022-10-16T05:50:28;13.38;;;8.48;;
33347;SDS011;19707;51.158;17.124;2022-10-16T05:53:30;10.63;;;8.38;;
33347;SDS011;19707;51.158;17.124;2022-10-16T05:56:34;23.02;;;17.10;;
33347;SDS011;19707;51.158;17.124;2022-10-16T05:59:37;13.55;;;12.13;;
33347;SDS011;19707;51.158;17.124;2022-10-16T06:02:38;13.53;;;10.23;;
33347;SDS011;19707;51.158;17.124;2022-10-16T06:05:39;11.12;;;9.08;;
33347;SDS011;19707;51.158;17.124;2022-10-16T06:08:43;12.37;;;8.68;;
33347;SDS011;19707;51.158;17.124;2022-10-16T06:11:46;10.93;;;7.90;;
33347;SDS011;19707;51.158;17.124;2022-10-16T06:14:47;11.48;;;9.28;;
33347;SDS011;19707;51.158;17.124;2022-10-16T06:17:49;15.55;;;9.75;;
33347;SDS011;19707;51.158;17.124;2022-10-16T06:20:50;11.73;;;8.03;;
33347;SDS011;19707;51.158;17.124;2022-10-16T06:23:52;12.78;;;7.92;;
33347;SDS011;19707;51.158;17.124;2022-10-16T06:26:58;10.08;;;7.72;;
33347;SDS011;19707;51.158;17.124;2022-10-16T06:30:02;8.73;;;7.30;;
33347;SDS011;19707;51.158;17.124;2022-10-16T06:33:04;11.20;;;8.28;;
33347;SDS011;19707;51.158;17.124;2022-10-16T06:36:09;10.55;;;7.92;;
33347;SDS011;19707;51.158;17.124;2022-10-16T06:39:15;11.53;;;8.83;;
33347;SDS011;19707;51.158;17.124;2022-10-16T06:42:23;10.38;;;8.43;;
33347;SDS011;19707;51.158;17.124;2022-10-16T06:45:28;10.00;;;8.30;;
33347;SDS011;19707;51.158;17.124;2022-10-16T06:48:47;12.07;;;6.83;;
33347;SDS011;19707;51.158;17.124;2022-10-16T06:51:51;11.43;;;8.05;;
33347;SDS011;19707;51.158;17.124;2022-10-16T06:57:54;10.55;;;7.95;;
33347;SDS011;19707;51.158;17.124;2022-10-16T07:00:58;10.43;;;7.80;;
33347;SDS011;19707;51.158;17.124;2022-10-16T07:03:59;7.58;;;6.47;;
33347;SDS011;19707;51.158;17.124;2022-10-16T07:07:02;8.68;;;6.42;;
33347;SDS011;19707;51.158;17.124;2022-10-16T07:10:04;8.53;;;7.08;;
33347;SDS011;19707;51.158;17.124;2022-10-16T07:13:16;9.80;;;6.72;;
33347;SDS011;19707;51.158;17.124;2022-10-16T07:16:19;11.50;;;6.87;;
33347;SDS011;19707;51.158;17.124;2022-10-16T07:19:33;6.83;;;6.17;;
33347;SDS011;19707;51.158;17.124;2022-10-16T07:22:37;12.63;;;9.18;;
33347;SDS011;19707;51.158;17.124;2022-10-16T07:25:39;11.08;;;9.88;;
33347;SDS011;19707;51.158;17.124;2022-10-16T07:28:40;8.10;;;7.15;;
33347;SDS011;19707;51.158;17.124;2022-10-16T07:31:47;7.15;;;6.45;;
33347;SDS011;19707;51.158;17.124;2022-10-16T07:35:11;10.30;;;7.10;;
33347;SDS011;19707;51.158;17.124;2022-10-16T07:38:18;13.85;;;9.78;;
33347;SDS011;19707;51.158;17.124;2022-10-16T07:41:20;8.45;;;7.20;;
33347;SDS011;19707;51.158;17.124;2022-10-16T07:44:22;11.03;;;5.92;;
33347;SDS011;19707;51.158;17.124;2022-10-16T07:47:24;6.42;;;5.80;;
33347;SDS011;19707;51.158;17.124;2022-10-16T07:50:26;6.92;;;5.55;;
33347;SDS011;19707;51.158;17.124;2022-10-16T07:53:30;5.55;;;5.03;;
33347;SDS011;19707;51.158;17.124;2022-10-16T07:56:32;6.37;;;5.42;;
33347;SDS011;19707;51.158;17.124;2022-10-16T07:59:35;7.83;;;5.62;;
33347;SDS011;19707;51.158;17.124;2022-10-16T08:02:37;6.58;;;5.12;;
33347;SDS011;19707;51.158;17.124;2022-10-16T08:05:43;6.33;;;4.80;;
33347;SDS011;19707;51.158;17.124;2022-10-16T08:08:54;5.72;;;4.65;;
33347;SDS011;19707;51.158;17.124;2022-10-16T08:11:56;6.53;;;5.83;;
33347;SDS011;19707;51.158;17.124;2022-10-16T08:14:58;8.28;;;6.92;;
33347;SDS011;19707;51.158;17.124;2022-10-16T08:18:03;7.55;;;4.72;;
33347;SDS011;19707;51.158;17.124;2022-10-16T08:21:06;6.37;;;4.78;;
33347;SDS011;19707;51.158;17.124;2022-10-16T08:24:09;5.37;;;4.45;;
33347;SDS011;19707;51.158;17.124;2022-10-16T08:27:10;4.87;;;3.72;;
33347;SDS011;19707;51.158;17.124;2022-10-16T08:30:11;5.28;;;4.17;;
33347;SDS011;19707;51.158;17.124;2022-10-16T08:33:13;6.40;;;4.75;;
33347;SDS011;19707;51.158;17.124;2022-10-16T08:36:15;7.80;;;4.87;;
33347;SDS011;19707;51.158;17.124;2022-10-16T08:39:17;5.47;;;4.25;;
33347;SDS011;19707;51.158;17.124;2022-10-16T08:45:35;6.67;;;3.87;;
33347;SDS011;19707;51.158;17.124;2022-10-16T08:51:54;7.15;;;4.53;;
33347;SDS011;19707;51.158;17.124;2022-10-16T08:54:57;8.78;;;7.22;;
33347;SDS011;19707;51.158;17.124;2022-10-16T08:57:59;5.83;;;4.78;;
33347;SDS011;19707;51.158;17.124;2022-10-16T09:01:02;5.78;;;4.58;;
33347;SDS011;19707;51.158;17.124;2022-10-16T09:07:32;8.48;;;5.15;;
33347;SDS011;19707;51.158;17.124;2022-10-16T09:14:16;8.33;;;4.35;;
33347;SDS011;19707;51.158;17.124;2022-10-16T09:21:38;5.62;;;4.58;;
33347;SDS011;19707;51.158;17.124;2022-10-16T09:24:24;5.30;;;4.35;;
33347;SDS011;19707;51.158;17.124;2022-10-16T09:27:26;6.60;;;4.95;;
33347;SDS011;19707;51.158;17.124;2022-10-16T09:30:28;6.97;;;4.95;;
33347;SDS011;19707;51.158;17.124;2022-10-16T09:33:33;6.97;;;4.75;;
33347;SDS011;19707;51.158;17.124;2022-10-16T09:36:39;6.47;;;4.53;;
33347;SDS011;19707;51.158;17.124;2022-10-16T09:39:48;5.45;;;4.60;;
33347;SDS011;19707;51.158;17.124;2022-10-16T09:45:56;5.30;;;4.60;;
33347;SDS011;19707;51.158;17.124;2022-10-16T09:49:18;9.05;;;6.10;;
33347;SDS011;19707;51.158;17.124;2022-10-16T09:52:25;10.72;;;7.58;;
33347;SDS011;19707;51.158;17.124;2022-10-16T09:55:27;6.17;;;4.58;;
33347;SDS011;19707;51.158;17.124;2022-10-16T09:58:28;7.40;;;6.40;;
33347;SDS011;19707;51.158;17.124;2022-10-16T10:01:36;8.28;;;5.42;;
33347;SDS011;19707;51.158;17.124;2022-10-16T10:04:50;5.35;;;4.40;;
33347;SDS011;19707;51.158;17.124;2022-10-16T10:07:59;6.42;;;4.12;;
33347;SDS011;19707;51.158;17.124;2022-10-16T10:11:06;9.95;;;7.03;;
33347;SDS011;19707;51.158;17.124;2022-10-16T10:14:20;5.12;;;4.00;;
33347;SDS011;19707;51.158;17.124;2022-10-16T10:17:26;9.40;;;3.22;;
33347;SDS011;19707;51.158;17.124;2022-10-16T10:20:32;3.75;;;3.42;;
33347;SDS011;19707;51.158;17.124;2022-10-16T10:23:38;3.70;;;3.08;;
33347;SDS011;19707;51.158;17.124;2022-10-16T10:26:41;4.87;;;3.05;;
33347;SDS011;19707;51.158;17.124;2022-10-16T10:37:29;3.35;;;2.77;;
33347;SDS011;19707;51.158;17.124;2022-10-16T10:40:39;10.90;;;2.45;;
33347;SDS011;19707;51.158;17.124;2022-10-16T10:50:58;3.10;;;2.40;;
33347;SDS011;19707;51.158;17.124;2022-10-16T10:54:19;3.40;;;2.50;;
33347;SDS011;19707;51.158;17.124;2022-10-16T10:57:29;3.77;;;2.75;;
33347;SDS011;19707;51.158;17.124;2022-10-16T11:07:41;4.65;;;2.35;;
33347;SDS011;19707;51.158;17.124;2022-10-16T11:10:47;4.28;;;2.02;;
33347;SDS011;19707;51.158;17.124;2022-10-16T11:17:13;2.75;;;2.55;;
33347;SDS011;19707;51.158;17.124;2022-10-16T11:20:22;2.45;;;1.98;;
33347;SDS011;19707;51.158;17.124;2022-10-16T11:23:29;2.20;;;2.00;;
33347;SDS011;19707;51.158;17.124;2022-10-16T11:26:49;2.83;;;2.30;;
33347;SDS011;19707;51.158;17.124;2022-10-16T11:29:56;3.67;;;2.15;;
33347;SDS011;19707;51.158;17.124;2022-10-16T11:36:23;2.27;;;2.08;;
33347;SDS011;19707;51.158;17.124;2022-10-16T11:39:37;2.95;;;2.40;;
33347;SDS011;19707;51.158;17.124;2022-10-16T11:42:41;3.77;;;2.20;;
33347;SDS011;19707;51.158;17.124;2022-10-16T11:45:50;3.35;;;2.17;;
33347;SDS011;19707;51.158;17.124;2022-10-16T11:49:03;2.12;;;1.92;;
33347;SDS011;19707;51.158;17.124;2022-10-16T11:52:30;4.22;;;2.05;;
33347;SDS011;19707;51.158;17.124;2022-10-16T11:55:46;4.45;;;2.10;;
33347;SDS011;19707;51.158;17.124;2022-10-16T11:58:51;2.83;;;2.27;;
33347;SDS011;19707;51.158;17.124;2022-10-16T12:09:22;3.00;;;2.20;;
33347;SDS011;19707;51.158;17.124;2022-10-16T12:15:40;4.40;;;2.87;;
33347;SDS011;19707;51.158;17.124;2022-10-16T12:18:44;2.92;;;2.62;;
33347;SDS011;19707;51.158;17.124;2022-10-16T12:21:47;3.92;;;3.62;;
33347;SDS011;19707;51.158;17.124;2022-10-16T12:24:51;5.78;;;2.92;;
33347;SDS011;19707;51.158;17.124;2022-10-16T12:28:00;7.03;;;4.50;;
33347;SDS011;19707;51.158;17.124;2022-10-16T12:31:20;7.20;;;5.90;;
33347;SDS011;19707;51.158;17.124;2022-10-16T12:35:05;5.00;;;4.03;;
33347;SDS011;19707;51.158;17.124;2022-10-16T12:37:44;7.83;;;5.40;;
33347;SDS011;19707;51.158;17.124;2022-10-16T12:40:46;5.00;;;4.35;;
33347;SDS011;19707;51.158;17.124;2022-10-16T12:43:58;5.08;;;4.58;;
33347;SDS011;19707;51.158;17.124;2022-10-16T12:47:04;5.72;;;4.53;;
33347;SDS011;19707;51.158;17.124;2022-10-16T12:53:41;7.35;;;5.90;;
33347;SDS011;19707;51.158;17.124;2022-10-16T13:00:24;3.87;;;3.55;;
33347;SDS011;19707;51.158;17.124;2022-10-16T13:07:09;6.97;;;4.60;;
33347;SDS011;19707;51.158;17.124;2022-10-16T13:10:33;4.83;;;4.05;;
33347;SDS011;19707;51.158;17.124;2022-10-16T13:13:56;4.47;;;4.03;;
33347;SDS011;19707;51.158;17.124;2022-10-16T13:24:20;8.65;;;6.67;;
33347;SDS011;19707;51.158;17.124;2022-10-16T13:27:55;7.30;;;5.83;;
33347;SDS011;19707;51.158;17.124;2022-10-16T13:31:04;6.33;;;5.67;;
33347;SDS011;19707;51.158;17.124;2022-10-16T13:34:10;7.15;;;5.85;;
33347;SDS011;19707;51.158;17.124;2022-10-16T13:37:22;7.35;;;6.58;;
33347;SDS011;19707;51.158;17.124;2022-10-16T13:40:25;6.75;;;6.03;;
33347;SDS011;19707;51.158;17.124;2022-10-16T13:43:34;8.28;;;6.35;;
33347;SDS011;19707;51.158;17.124;2022-10-16T13:47:02;8.60;;;6.70;;
33347;SDS011;19707;51.158;17.124;2022-10-16T13:50:10;6.80;;;5.58;;
33347;SDS011;19707;51.158;17.124;2022-10-16T13:53:15;9.80;;;6.22;;
33347;SDS011;19707;51.158;17.124;2022-10-16T13:56:22;9.68;;;6.42;;
33347;SDS011;19707;51.158;17.124;2022-10-16T14:02:30;7.72;;;6.53;;
33347;SDS011;19707;51.158;17.124;2022-10-16T14:05:36;8.43;;;6.55;;
33347;SDS011;19707;51.158;17.124;2022-10-16T14:11:59;8.35;;;5.75;;
33347;SDS011;19707;51.158;17.124;2022-10-16T14:15:04;6.35;;;5.67;;
33347;SDS011;19707;51.158;17.124;2022-10-16T14:18:13;8.05;;;6.35;;
33347;SDS011;19707;51.158;17.124;2022-10-16T14:21:22;7.80;;;6.47;;
33347;SDS011;19707;51.158;17.124;2022-10-16T14:24:26;5.85;;;4.85;;
33347;SDS011;19707;51.158;17.124;2022-10-16T14:27:34;8.00;;;5.90;;
33347;SDS011;19707;51.158;17.124;2022-10-16T14:30:37;8.28;;;5.22;;
33347;SDS011;19707;51.158;17.124;2022-10-16T14:34:00;7.72;;;4.78;;
33347;SDS011;19707;51.158;17.124;2022-10-16T14:40:25;6.60;;;5.62;;
33347;SDS011;19707;51.158;17.124;2022-10-16T14:43:37;8.23;;;6.53;;
33347;SDS011;19707;51.158;17.124;2022-10-16T14:46:41;6.62;;;4.78;;
33347;SDS011;19707;51.158;17.124;2022-10-16T14:49:44;8.08;;;5.25;;
33347;SDS011;19707;51.158;17.124;2022-10-16T14:52:45;7.42;;;5.50;;
33347;SDS011;19707;51.158;17.124;2022-10-16T14:55:46;8.25;;;5.47;;
33347;SDS011;19707;51.158;17.124;2022-10-16T14:58:53;9.00;;;7.65;;
33347;SDS011;19707;51.158;17.124;2022-10-16T15:01:52;17.07;;;14.07;;
33347;SDS011;19707;51.158;17.124;2022-10-16T15:04:54;8.40;;;7.33;;
33347;SDS011;19707;51.158;17.124;2022-10-16T15:07:56;6.12;;;5.53;;
33347;SDS011;19707;51.158;17.124;2022-10-16T15:10:57;13.72;;;9.95;;
33347;SDS011;19707;51.158;17.124;2022-10-16T15:13:59;10.43;;;8.03;;
33347;SDS011;19707;51.158;17.124;2022-10-16T15:17:00;14.95;;;9.30;;
33347;SDS011;19707;51.158;17.124;2022-10-16T15:20:02;6.92;;;4.95;;
33347;SDS011;19707;51.158;17.124;2022-10-16T15:23:16;5.10;;;4.30;;
33347;SDS011;19707;51.158;17.124;2022-10-16T15:26:19;4.92;;;4.28;;
33347;SDS011;19707;51.158;17.124;2022-10-16T15:29:21;18.75;;;14.25;;
33347;SDS011;19707;51.158;17.124;2022-10-16T15:32:22;8.18;;;7.22;;
33347;SDS011;19707;51.158;17.124;2022-10-16T15:35:23;7.20;;;6.08;;
33347;SDS011;19707;51.158;17.124;2022-10-16T15:38:27;6.47;;;4.95;;
33347;SDS011;19707;51.158;17.124;2022-10-16T15:41:29;7.55;;;5.08;;
33347;SDS011;19707;51.158;17.124;2022-10-16T15:44:31;5.45;;;4.95;;
33347;SDS011;19707;51.158;17.124;2022-10-16T15:47:35;14.83;;;12.58;;
33347;SDS011;19707;51.158;17.124;2022-10-16T15:50:36;10.10;;;7.37;;
33347;SDS011;19707;51.158;17.124;2022-10-16T15:53:39;29.82;;;19.35;;
33347;SDS011;19707;51.158;17.124;2022-10-16T15:56:40;11.78;;;7.17;;
33347;SDS011;19707;51.158;17.124;2022-10-16T15:59:43;8.03;;;6.33;;
33347;SDS011;19707;51.158;17.124;2022-10-16T16:02:51;8.68;;;6.50;;
33347;SDS011;19707;51.158;17.124;2022-10-16T16:06:04;10.20;;;6.53;;
33347;SDS011;19707;51.158;17.124;2022-10-16T16:09:14;13.70;;;9.33;;
33347;SDS011;19707;51.158;17.124;2022-10-16T16:12:15;19.05;;;15.03;;
33347;SDS011;19707;51.158;17.124;2022-10-16T16:15:16;20.23;;;15.78;;
33347;SDS011;19707;51.158;17.124;2022-10-16T16:18:18;21.15;;;16.95;;
33347;SDS011;19707;51.158;17.124;2022-10-16T16:21:24;12.53;;;9.58;;
33347;SDS011;19707;51.158;17.124;2022-10-16T16:24:25;12.50;;;10.45;;
33347;SDS011;19707;51.158;17.124;2022-10-16T16:27:27;11.97;;;9.58;;
33347;SDS011;19707;51.158;17.124;2022-10-16T16:30:30;13.72;;;9.63;;
33347;SDS011;19707;51.158;17.124;2022-10-16T16:33:31;11.30;;;10.10;;
33347;SDS011;19707;51.158;17.124;2022-10-16T16:36:33;15.30;;;11.38;;
33347;SDS011;19707;51.158;17.124;2022-10-16T16:39:36;18.05;;;14.25;;
33347;SDS011;19707;51.158;17.124;2022-10-16T16:42:37;20.77;;;14.00;;
33347;SDS011;19707;51.158;17.124;2022-10-16T16:45:39;19.55;;;13.18;;
33347;SDS011;19707;51.158;17.124;2022-10-16T16:48:40;15.50;;;12.53;;
33347;SDS011;19707;51.158;17.124;2022-10-16T16:51:42;13.88;;;11.68;;
33347;SDS011;19707;51.158;17.124;2022-10-16T16:54:43;14.60;;;12.80;;
33347;SDS011;19707;51.158;17.124;2022-10-16T16:57:47;54.48;;;40.50;;
33347;SDS011;19707;51.158;17.124;2022-10-16T17:00:49;29.87;;;24.02;;
33347;SDS011;19707;51.158;17.124;2022-10-16T17:03:51;34.08;;;24.52;;
33347;SDS011;19707;51.158;17.124;2022-10-16T17:06:55;25.45;;;16.60;;
33347;SDS011;19707;51.158;17.124;2022-10-16T17:09:56;22.62;;;16.10;;
33347;SDS011;19707;51.158;17.124;2022-10-16T17:12:58;25.62;;;16.80;;
33347;SDS011;19707;51.158;17.124;2022-10-16T17:15:59;32.40;;;21.75;;
33347;SDS011;19707;51.158;17.124;2022-10-16T17:19:06;30.52;;;21.73;;
33347;SDS011;19707;51.158;17.124;2022-10-16T17:22:10;25.92;;;19.15;;
33347;SDS011;19707;51.158;17.124;2022-10-16T17:25:14;25.45;;;17.70;;
33347;SDS011;19707;51.158;17.124;2022-10-16T17:28:15;26.23;;;17.02;;
33347;SDS011;19707;51.158;17.124;2022-10-16T17:31:18;21.48;;;16.87;;
33347;SDS011;19707;51.158;17.124;2022-10-16T17:34:25;19.12;;;16.40;;
33347;SDS011;19707;51.158;17.124;2022-10-16T17:37:27;21.52;;;16.77;;
33347;SDS011;19707;51.158;17.124;2022-10-16T17:40:28;21.15;;;16.70;;
33347;SDS011;19707;51.158;17.124;2022-10-16T17:43:30;25.52;;;16.55;;
33347;SDS011;19707;51.158;17.124;2022-10-16T17:46:31;21.87;;;16.67;;
33347;SDS011;19707;51.158;17.124;2022-10-16T17:49:33;22.82;;;16.30;;
33347;SDS011;19707;51.158;17.124;2022-10-16T17:52:35;20.37;;;16.67;;
33347;SDS011;19707;51.158;17.124;2022-10-16T17:55:40;22.07;;;16.17;;
33347;SDS011;19707;51.158;17.124;2022-10-16T17:58:47;40.60;;;31.25;;
33347;SDS011;19707;51.158;17.124;2022-10-16T18:02:04;42.38;;;29.15;;
33347;SDS011;19707;51.158;17.124;2022-10-16T18:05:23;29.40;;;20.65;;
33347;SDS011;19707;51.158;17.124;2022-10-16T18:08:27;30.20;;;22.55;;
33347;SDS011;19707;51.158;17.124;2022-10-16T18:11:29;26.20;;;21.93;;
33347;SDS011;19707;51.158;17.124;2022-10-16T18:14:31;31.30;;;23.10;;
33347;SDS011;19707;51.158;17.124;2022-10-16T18:17:35;30.97;;;22.02;;
33347;SDS011;19707;51.158;17.124;2022-10-16T18:20:37;25.37;;;19.20;;
33347;SDS011;19707;51.158;17.124;2022-10-16T18:23:40;30.70;;;23.52;;
33347;SDS011;19707;51.158;17.124;2022-10-16T18:26:42;34.25;;;25.37;;
33347;SDS011;19707;51.158;17.124;2022-10-16T18:29:46;30.07;;;22.03;;
33347;SDS011;19707;51.158;17.124;2022-10-16T18:32:53;28.20;;;19.37;;
33347;SDS011;19707;51.158;17.124;2022-10-16T18:35:54;27.42;;;20.20;;
33347;SDS011;19707;51.158;17.124;2022-10-16T18:38:55;25.48;;;19.02;;
33347;SDS011;19707;51.158;17.124;2022-10-16T18:41:58;27.45;;;20.00;;
33347;SDS011;19707;51.158;17.124;2022-10-16T18:45:00;26.00;;;20.45;;
33347;SDS011;19707;51.158;17.124;2022-10-16T18:48:01;37.70;;;26.50;;
33347;SDS011;19707;51.158;17.124;2022-10-16T18:51:12;30.57;;;22.87;;
33347;SDS011;19707;51.158;17.124;2022-10-16T18:54:30;25.10;;;20.40;;
33347;SDS011;19707;51.158;17.124;2022-10-16T18:57:31;29.63;;;20.25;;
33347;SDS011;19707;51.158;17.124;2022-10-16T19:00:33;27.90;;;21.35;;
33347;SDS011;19707;51.158;17.124;2022-10-16T19:03:35;28.73;;;21.95;;
33347;SDS011;19707;51.158;17.124;2022-10-16T19:06:39;26.85;;;20.92;;
33347;SDS011;19707;51.158;17.124;2022-10-16T19:09:44;27.58;;;22.10;;
33347;SDS011;19707;51.158;17.124;2022-10-16T19:12:46;29.57;;;21.10;;
33347;SDS011;19707;51.158;17.124;2022-10-16T19:15:47;25.25;;;20.95;;
33347;SDS011;19707;51.158;17.124;2022-10-16T19:18:53;26.27;;;20.48;;
33347;SDS011;19707;51.158;17.124;2022-10-16T19:21:56;23.73;;;19.10;;
33347;SDS011;19707;51.158;17.124;2022-10-16T19:25:00;29.65;;;22.52;;
33347;SDS011;19707;51.158;17.124;2022-10-16T19:28:02;31.12;;;21.15;;
33347;SDS011;19707;51.158;17.124;2022-10-16T19:31:09;27.50;;;19.50;;
33347;SDS011;19707;51.158;17.124;2022-10-16T19:34:19;27.48;;;21.35;;
33347;SDS011;19707;51.158;17.124;2022-10-16T19:37:21;27.10;;;19.50;;
33347;SDS011;19707;51.158;17.124;2022-10-16T19:40:25;23.50;;;19.10;;
33347;SDS011;19707;51.158;17.124;2022-10-16T19:43:27;28.87;;;22.07;;
33347;SDS011;19707;51.158;17.124;2022-10-16T19:46:30;26.35;;;19.73;;
33347;SDS011;19707;51.158;17.124;2022-10-16T19:49:33;29.00;;;19.20;;
33347;SDS011;19707;51.158;17.124;2022-10-16T19:52:42;25.82;;;19.40;;